الصفحة الرئيسية
METAR-TAF:

METAR-TAF

مطار :

مالاكا, ماليزيا

دائرة عرض: 02-16N, خط طول: 102-15E, ارتفاع: 11 متر

مراقبة الطقس الحالي

تاريخ ووقت الإصدار 51 دقيقة قبل الساعة 21:00UTC
ريح 9 عقدةمن اتجاهات متغيرة تتزايد حتى 21 عقدة
درجة الحرارة 26°درجة مئوية
الرطوبة 84%
ضغط 1010 hPa
الرؤية 10 كم أو أكثر
غيوم قليلة على ارتفاع 1700 قدم, مزنة ركامية.
غيوم متفرقة على ارتفاع 2700 قدم

METAR: WMKM 022100Z VRB09G21KT 9999 FEW017CB SCT027 26/23 Q1010

زمن: 05:51 (21:51 UTC)

توقعات

تاريخ ووقت الإصدار 4ساعات و 51 دقيقة قبل الساعة 17:00UTC
التوقعات صالحة من02 الساعة 18 UTC إلى 03 الساعة 18 UTC
ريح 5 عقدة من الجنوب الشرقي
الرؤية 10 كم أو أكثر
غيوم قليلة على ارتفاع 1700 قدم, مزنة ركامية.
نظرية الاحتمالات 30% :
مؤقت
من 02 الساعة 20 UTC إلى 03 الساعة 00 UTC
الرؤية: 4000 متر
غيوم قليلة على ارتفاع 1700 قدم, مزنة ركامية.
غيوم متفرقة على ارتفاع 1800 قدم
عاصفة رعدية, مطر
أصبح
من 03 الساعة 02 UTC إلى 03 الساعة 04 UTC
غيوم قليلة على ارتفاع 1800 قدم

TAF: WMKM 021700Z 0218/0318 14005KT 9999 FEW017CB PROB30 TEMPO 0220/0300 4000 TSRA FEW017CB SCT018 BECMG 0302/0304 FEW018

أرصاد الطقس والتوقعات من أكثر من 4000 مطار (تقارير الطقس للمطار METAR والتنبؤ بالطقس بالمطارTAF).

المحطات المتاحة هي النقط الصفراء والحمراء على الخريطة.

حرك المؤشر فوق النقطة لمعرفة اسم المحطة.

ثم انقر لمعرفة أرصاد وتوقعات الطقس.

لتغيير الخارطة: اضغط على الأزرار الخضراء مع رمز الصليب الأسود للتكبير. على الزر الأخضر مع شرطة للتصغير، أو على الأسهم الخضراء للخرائط المجاورة.


METAR-TAF: